Mammoth Hot Springs, Wyoming
Current Conditions -  °F | °C
As of 2:56 PM on Saturday 20 Dec 2014 (Local Time) from KDIJ Reporting Station
Overcast Overcast  
Wind Chill: 24°   Ceiling: 5000
Heat Index: 33°   Visibility: 10mi
Dew Point: 28°   Wind: 12mph
Humidity: 82%   Direction: 170°S
Pressure: 29.96"   Gusts: NA
Location:  44.5747°N, 110.518°W
Report Text: KDIJ 202156Z AUTO 17010KT 10SM SCT031 BKN050 OVC065 01/M02 A2996 RMK AO2 T00051022 SNE27 P0000 SLP138
Loading
Personal Weather Stations






























Interactive Weather Map New forecast layout! Learn more

10-Day Weather Forecast

Advertisements
Track Severe Weather on mobile